sensor_id;sensor_type;location;lat;lon;timestamp;temperature;humidity
20504;DHT22;10410;51.046;6.980;2023-06-19T00:06:48;22.90;85.50
20504;DHT22;10410;51.046;6.980;2023-06-19T00:13:49;22.80;86.20
20504;DHT22;10410;51.046;6.980;2023-06-19T00:20:50;22.60;86.50
20504;DHT22;10410;51.046;6.980;2023-06-19T00:27:50;22.40;87.00
20504;DHT22;10410;51.046;6.980;2023-06-19T00:34:51;22.40;87.30
20504;DHT22;10410;51.046;6.980;2023-06-19T00:41:52;22.30;87.60
20504;DHT22;10410;51.046;6.980;2023-06-19T00:48:53;22.20;87.90
20504;DHT22;10410;51.046;6.980;2023-06-19T00:55:55;22.20;88.40
20504;DHT22;10410;51.046;6.980;2023-06-19T01:02:57;22.10;88.70
20504;DHT22;10410;51.046;6.980;2023-06-19T01:10:02;22.00;89.10
20504;DHT22;10410;51.046;6.980;2023-06-19T01:17:05;22.00;89.80
20504;DHT22;10410;51.046;6.980;2023-06-19T01:24:06;21.90;90.00
20504;DHT22;10410;51.046;6.980;2023-06-19T01:31:12;21.90;90.20
20504;DHT22;10410;51.046;6.980;2023-06-19T01:38:13;21.90;90.50
20504;DHT22;10410;51.046;6.980;2023-06-19T01:45:14;21.80;90.60
20504;DHT22;10410;51.046;6.980;2023-06-19T01:52:16;21.70;90.80
20504;DHT22;10410;51.046;6.980;2023-06-19T01:59:17;21.60;91.20
20504;DHT22;10410;51.046;6.980;2023-06-19T02:06:17;21.60;91.40
20504;DHT22;10410;51.046;6.980;2023-06-19T02:13:20;21.50;91.40
20504;DHT22;10410;51.046;6.980;2023-06-19T02:20:21;21.50;91.80
20504;DHT22;10410;51.046;6.980;2023-06-19T02:27:22;21.50;91.80
20504;DHT22;10410;51.046;6.980;2023-06-19T02:34:24;21.50;91.90
20504;DHT22;10410;51.046;6.980;2023-06-19T02:41:24;21.50;92.00
20504;DHT22;10410;51.046;6.980;2023-06-19T02:48:25;21.50;92.00
20504;DHT22;10410;51.046;6.980;2023-06-19T02:55:26;21.50;92.10
20504;DHT22;10410;51.046;6.980;2023-06-19T03:02:29;21.50;92.20
20504;DHT22;10410;51.046;6.980;2023-06-19T03:09:29;21.50;92.30
20504;DHT22;10410;51.046;6.980;2023-06-19T03:16:30;21.50;92.40
20504;DHT22;10410;51.046;6.980;2023-06-19T03:23:31;21.40;92.50
20504;DHT22;10410;51.046;6.980;2023-06-19T03:30:31;21.40;92.60
20504;DHT22;10410;51.046;6.980;2023-06-19T03:37:32;21.30;92.70
20504;DHT22;10410;51.046;6.980;2023-06-19T03:44:35;21.20;92.80
20504;DHT22;10410;51.046;6.980;2023-06-19T03:51:35;21.10;93.10
20504;DHT22;10410;51.046;6.980;2023-06-19T03:58:36;20.90;94.60
20504;DHT22;10410;51.046;6.980;2023-06-19T04:05:36;20.80;96.70
20504;DHT22;10410;51.046;6.980;2023-06-19T04:12:38;20.70;97.40
20504;DHT22;10410;51.046;6.980;2023-06-19T04:19:38;20.60;97.10
20504;DHT22;10410;51.046;6.980;2023-06-19T04:26:38;20.50;97.40
20504;DHT22;10410;51.046;6.980;2023-06-19T04:33:39;20.60;99.00
20504;DHT22;10410;51.046;6.980;2023-06-19T04:40:41;20.60;98.90
20504;DHT22;10410;51.046;6.980;2023-06-19T04:47:43;20.60;99.10
20504;DHT22;10410;51.046;6.980;2023-06-19T04:54:53;20.60;99.60
20504;DHT22;10410;51.046;6.980;2023-06-19T05:01:54;20.60;99.70
20504;DHT22;10410;51.046;6.980;2023-06-19T05:08:54;20.60;99.90
20504;DHT22;10410;51.046;6.980;2023-06-19T05:15:55;20.60;99.90
20504;DHT22;10410;51.046;6.980;2023-06-19T05:22:58;20.60;99.90
20504;DHT22;10410;51.046;6.980;2023-06-19T05:29:58;20.60;99.90
20504;DHT22;10410;51.046;6.980;2023-06-19T05:36:59;20.60;99.90
20504;DHT22;10410;51.046;6.980;2023-06-19T05:44:00;20.70;99.90
20504;DHT22;10410;51.046;6.980;2023-06-19T05:51:02;20.80;99.90
20504;DHT22;10410;51.046;6.980;2023-06-19T05:58:05;21.00;99.90
20504;DHT22;10410;51.046;6.980;2023-06-19T06:05:06;21.30;99.90
20504;DHT22;10410;51.046;6.980;2023-06-19T06:12:08;21.60;99.90
20504;DHT22;10410;51.046;6.980;2023-06-19T06:19:09;21.70;99.90
20504;DHT22;10410;51.046;6.980;2023-06-19T06:26:09;21.90;99.90
20504;DHT22;10410;51.046;6.980;2023-06-19T06:33:10;22.20;99.90
20504;DHT22;10410;51.046;6.980;2023-06-19T06:40:10;22.30;99.90
20504;DHT22;10410;51.046;6.980;2023-06-19T06:47:11;22.30;99.90
20504;DHT22;10410;51.046;6.980;2023-06-19T06:54:12;22.20;99.90
20504;DHT22;10410;51.046;6.980;2023-06-19T07:01:12;22.10;99.90
20504;DHT22;10410;51.046;6.980;2023-06-19T07:08:13;22.20;99.90
20504;DHT22;10410;51.046;6.980;2023-06-19T07:15:13;22.30;99.90
20504;DHT22;10410;51.046;6.980;2023-06-19T07:22:14;22.40;99.90
20504;DHT22;10410;51.046;6.980;2023-06-19T07:29:14;22.40;99.90
20504;DHT22;10410;51.046;6.980;2023-06-19T07:36:15;22.50;99.90
20504;DHT22;10410;51.046;6.980;2023-06-19T07:43:16;22.60;99.90
20504;DHT22;10410;51.046;6.980;2023-06-19T07:50:17;22.70;99.90
20504;DHT22;10410;51.046;6.980;2023-06-19T07:57:18;22.80;99.90
20504;DHT22;10410;51.046;6.980;2023-06-19T08:04:18;22.80;99.90
20504;DHT22;10410;51.046;6.980;2023-06-19T08:11:19;22.70;99.90
20504;DHT22;10410;51.046;6.980;2023-06-19T08:18:19;22.70;99.90
20504;DHT22;10410;51.046;6.980;2023-06-19T08:25:20;22.80;99.90
20504;DHT22;10410;51.046;6.980;2023-06-19T08:32:20;22.80;99.90
20504;DHT22;10410;51.046;6.980;2023-06-19T08:39:20;22.90;99.90
20504;DHT22;10410;51.046;6.980;2023-06-19T08:46:22;23.00;99.90
20504;DHT22;10410;51.046;6.980;2023-06-19T08:53:24;23.20;99.90
20504;DHT22;10410;51.046;6.980;2023-06-19T09:00:29;23.40;99.90
20504;DHT22;10410;51.046;6.980;2023-06-19T09:07:32;23.60;99.90
20504;DHT22;10410;51.046;6.980;2023-06-19T09:14:39;23.90;99.30
20504;DHT22;10410;51.046;6.980;2023-06-19T09:21:39;24.10;98.10
20504;DHT22;10410;51.046;6.980;2023-06-19T09:28:41;24.20;97.90
20504;DHT22;10410;51.046;6.980;2023-06-19T09:35:45;24.30;97.60
20504;DHT22;10410;51.046;6.980;2023-06-19T09:42:47;24.30;96.80
20504;DHT22;10410;51.046;6.980;2023-06-19T09:49:57;24.30;96.20
20504;DHT22;10410;51.046;6.980;2023-06-19T09:56:58;24.40;96.00
20504;DHT22;10410;51.046;6.980;2023-06-19T10:04:05;24.50;96.00
20504;DHT22;10410;51.046;6.980;2023-06-19T10:11:07;24.50;96.00
20504;DHT22;10410;51.046;6.980;2023-06-19T10:18:07;24.50;95.60
20504;DHT22;10410;51.046;6.980;2023-06-19T10:25:08;24.70;95.50
20504;DHT22;10410;51.046;6.980;2023-06-19T10:32:09;24.80;95.50
20504;DHT22;10410;51.046;6.980;2023-06-19T10:39:09;25.20;94.30
20504;DHT22;10410;51.046;6.980;2023-06-19T10:46:10;25.40;94.20
20504;DHT22;10410;51.046;6.980;2023-06-19T10:53:10;25.60;93.80
20504;DHT22;10410;51.046;6.980;2023-06-19T11:00:11;25.70;93.60
20504;DHT22;10410;51.046;6.980;2023-06-19T11:07:15;25.60;92.80
20504;DHT22;10410;51.046;6.980;2023-06-19T11:14:16;25.60;93.20
20504;DHT22;10410;51.046;6.980;2023-06-19T11:21:17;25.80;93.00
20504;DHT22;10410;51.046;6.980;2023-06-19T11:28:17;26.10;92.40
20504;DHT22;10410;51.046;6.980;2023-06-19T11:35:21;26.20;91.30
20504;DHT22;10410;51.046;6.980;2023-06-19T11:42:22;26.20;91.60
20504;DHT22;10410;51.046;6.980;2023-06-19T11:49:22;26.40;91.30
20504;DHT22;10410;51.046;6.980;2023-06-19T11:56:24;26.40;91.40
20504;DHT22;10410;51.046;6.980;2023-06-19T12:03:24;26.50;90.90
20504;DHT22;10410;51.046;6.980;2023-06-19T12:10:25;26.50;90.50
20504;DHT22;10410;51.046;6.980;2023-06-19T12:17:26;26.70;90.40
20504;DHT22;10410;51.046;6.980;2023-06-19T12:24:26;27.00;90.10
20504;DHT22;10410;51.046;6.980;2023-06-19T12:31:27;27.20;89.80
20504;DHT22;10410;51.046;6.980;2023-06-19T12:38:28;27.60;87.80
20504;DHT22;10410;51.046;6.980;2023-06-19T12:45:28;27.70;87.20
20504;DHT22;10410;51.046;6.980;2023-06-19T12:52:29;28.00;86.70
20504;DHT22;10410;51.046;6.980;2023-06-19T12:59:30;28.30;85.60
20504;DHT22;10410;51.046;6.980;2023-06-19T13:06:36;28.40;84.80
20504;DHT22;10410;51.046;6.980;2023-06-19T13:13:36;28.60;84.70
20504;DHT22;10410;51.046;6.980;2023-06-19T13:20:37;28.70;83.80
20504;DHT22;10410;51.046;6.980;2023-06-19T13:27:37;28.80;83.10
20504;DHT22;10410;51.046;6.980;2023-06-19T13:34:38;29.10;83.20
20504;DHT22;10410;51.046;6.980;2023-06-19T13:41:38;29.50;82.50
20504;DHT22;10410;51.046;6.980;2023-06-19T13:48:39;29.60;80.50
20504;DHT22;10410;51.046;6.980;2023-06-19T13:55:40;29.80;80.70
20504;DHT22;10410;51.046;6.980;2023-06-19T14:02:41;29.90;78.70
20504;DHT22;10410;51.046;6.980;2023-06-19T14:09:41;30.30;78.50
20504;DHT22;10410;51.046;6.980;2023-06-19T14:16:42;30.60;76.60
20504;DHT22;10410;51.046;6.980;2023-06-19T14:23:42;30.90;76.10
20504;DHT22;10410;51.046;6.980;2023-06-19T14:30:44;30.80;74.90
20504;DHT22;10410;51.046;6.980;2023-06-19T14:37:45;31.10;73.50
20504;DHT22;10410;51.046;6.980;2023-06-19T14:44:45;31.30;71.70
20504;DHT22;10410;51.046;6.980;2023-06-19T14:51:46;31.30;71.40
20504;DHT22;10410;51.046;6.980;2023-06-19T14:58:46;31.00;71.50
20504;DHT22;10410;51.046;6.980;2023-06-19T15:05:47;31.30;72.30
20504;DHT22;10410;51.046;6.980;2023-06-19T15:12:47;31.70;70.40
20504;DHT22;10410;51.046;6.980;2023-06-19T15:19:48;32.20;70.30
20504;DHT22;10410;51.046;6.980;2023-06-19T15:26:48;32.70;70.10
20504;DHT22;10410;51.046;6.980;2023-06-19T15:33:49;32.80;67.20
20504;DHT22;10410;51.046;6.980;2023-06-19T15:40:50;32.70;67.90
20504;DHT22;10410;51.046;6.980;2023-06-19T15:47:50;32.70;67.60
20504;DHT22;10410;51.046;6.980;2023-06-19T15:54:51;32.90;67.40
20504;DHT22;10410;51.046;6.980;2023-06-19T16:01:52;32.90;65.80
20504;DHT22;10410;51.046;6.980;2023-06-19T16:08:52;32.70;66.60
20504;DHT22;10410;51.046;6.980;2023-06-19T16:15:57;33.00;66.60
20504;DHT22;10410;51.046;6.980;2023-06-19T16:22:57;32.80;64.20
20504;DHT22;10410;51.046;6.980;2023-06-19T16:29:58;32.60;64.50
20504;DHT22;10410;51.046;6.980;2023-06-19T16:36:58;32.50;65.80
20504;DHT22;10410;51.046;6.980;2023-06-19T16:43:59;32.80;64.70
20504;DHT22;10410;51.046;6.980;2023-06-19T16:50:59;32.70;63.10
20504;DHT22;10410;51.046;6.980;2023-06-19T16:58:00;32.40;64.20
20504;DHT22;10410;51.046;6.980;2023-06-19T17:05:00;32.50;65.00
20504;DHT22;10410;51.046;6.980;2023-06-19T17:12:00;32.10;64.60
20504;DHT22;10410;51.046;6.980;2023-06-19T17:19:01;31.90;65.80
20504;DHT22;10410;51.046;6.980;2023-06-19T17:26:03;32.00;65.80
20504;DHT22;10410;51.046;6.980;2023-06-19T17:33:04;32.20;65.70
20504;DHT22;10410;51.046;6.980;2023-06-19T17:40:06;32.00;65.20
20504;DHT22;10410;51.046;6.980;2023-06-19T17:47:10;31.60;65.80
20504;DHT22;10410;51.046;6.980;2023-06-19T17:54:10;31.10;66.30
20504;DHT22;10410;51.046;6.980;2023-06-19T18:01:11;30.70;66.90
20504;DHT22;10410;51.046;6.980;2023-06-19T18:08:11;30.50;67.60
20504;DHT22;10410;51.046;6.980;2023-06-19T18:15:11;30.10;68.00
20504;DHT22;10410;51.046;6.980;2023-06-19T18:22:12;29.80;68.60
20504;DHT22;10410;51.046;6.980;2023-06-19T18:29:12;29.60;68.90
20504;DHT22;10410;51.046;6.980;2023-06-19T18:36:13;29.40;69.30
20504;DHT22;10410;51.046;6.980;2023-06-19T18:43:13;29.00;69.70
20504;DHT22;10410;51.046;6.980;2023-06-19T18:50:13;28.60;70.30
20504;DHT22;10410;51.046;6.980;2023-06-19T18:57:14;28.40;71.10
20504;DHT22;10410;51.046;6.980;2023-06-19T19:04:14;28.30;71.30
20504;DHT22;10410;51.046;6.980;2023-06-19T19:11:15;28.20;71.70
20504;DHT22;10410;51.046;6.980;2023-06-19T19:18:15;28.00;72.10
20504;DHT22;10410;51.046;6.980;2023-06-19T19:25:16;27.70;72.50
20504;DHT22;10410;51.046;6.980;2023-06-19T19:32:16;27.50;72.90
20504;DHT22;10410;51.046;6.980;2023-06-19T19:39:21;27.30;73.30
20504;DHT22;10410;51.046;6.980;2023-06-19T19:46:21;27.00;73.90
20504;DHT22;10410;51.046;6.980;2023-06-19T19:53:22;26.70;74.60
20504;DHT22;10410;51.046;6.980;2023-06-19T20:00:23;26.50;74.90
20504;DHT22;10410;51.046;6.980;2023-06-19T20:07:23;26.40;75.20
20504;DHT22;10410;51.046;6.980;2023-06-19T20:14:24;26.20;75.40
20504;DHT22;10410;51.046;6.980;2023-06-19T20:21:26;26.00;75.70
20504;DHT22;10410;51.046;6.980;2023-06-19T20:28:26;25.90;75.80
20504;DHT22;10410;51.046;6.980;2023-06-19T20:35:27;25.80;76.10
20504;DHT22;10410;51.046;6.980;2023-06-19T20:42:27;25.80;76.60
20504;DHT22;10410;51.046;6.980;2023-06-19T20:49:30;25.60;76.90
20504;DHT22;10410;51.046;6.980;2023-06-19T20:56:31;25.40;77.10
20504;DHT22;10410;51.046;6.980;2023-06-19T21:03:31;25.30;77.20
20504;DHT22;10410;51.046;6.980;2023-06-19T21:10:32;25.30;77.60
20504;DHT22;10410;51.046;6.980;2023-06-19T21:17:32;25.10;77.60
20504;DHT22;10410;51.046;6.980;2023-06-19T21:24:33;25.00;77.90
20504;DHT22;10410;51.046;6.980;2023-06-19T21:31:34;24.90;78.20
20504;DHT22;10410;51.046;6.980;2023-06-19T21:38:34;24.70;78.50
20504;DHT22;10410;51.046;6.980;2023-06-19T21:45:35;24.70;78.90
20504;DHT22;10410;51.046;6.980;2023-06-19T21:52:35;24.60;79.20
20504;DHT22;10410;51.046;6.980;2023-06-19T21:59:38;24.50;79.60
20504;DHT22;10410;51.046;6.980;2023-06-19T22:06:39;24.40;79.90
20504;DHT22;10410;51.046;6.980;2023-06-19T22:13:39;24.40;80.20
20504;DHT22;10410;51.046;6.980;2023-06-19T22:20:40;24.30;80.50
20504;DHT22;10410;51.046;6.980;2023-06-19T22:27:40;24.20;80.80
20504;DHT22;10410;51.046;6.980;2023-06-19T22:34:43;24.10;80.90
20504;DHT22;10410;51.046;6.980;2023-06-19T22:41:44;24.10;81.10
20504;DHT22;10410;51.046;6.980;2023-06-19T22:48:44;24.10;81.40
20504;DHT22;10410;51.046;6.980;2023-06-19T22:55:50;24.10;81.60
20504;DHT22;10410;51.046;6.980;2023-06-19T23:02:51;24.00;81.70
20504;DHT22;10410;51.046;6.980;2023-06-19T23:09:51;23.90;81.90
20504;DHT22;10410;51.046;6.980;2023-06-19T23:16:51;23.90;82.30
20504;DHT22;10410;51.046;6.980;2023-06-19T23:23:52;23.90;82.50
20504;DHT22;10410;51.046;6.980;2023-06-19T23:30:52;23.80;82.70
20504;DHT22;10410;51.046;6.980;2023-06-19T23:37:53;23.80;83.00
20504;DHT22;10410;51.046;6.980;2023-06-19T23:44:54;23.70;83.20
20504;DHT22;10410;51.046;6.980;2023-06-19T23:51:54;23.60;83.50
20504;DHT22;10410;51.046;6.980;2023-06-19T23:58:55;23.60;83.80
